sensor_id;sensor_type;location;lat;lon;timestamp;P1;durP1;ratioP1;P2;durP2;ratioP2
2538;SDS011;1280;49.760;9.664;2022-09-03T00:00:21;5.17;;;1.90;;
2538;SDS011;1280;49.760;9.664;2022-09-03T00:02:51;4.83;;;1.50;;
2538;SDS011;1280;49.760;9.664;2022-09-03T00:05:31;10.73;;;2.33;;
2538;SDS011;1280;49.760;9.664;2022-09-03T00:08:05;3.83;;;1.53;;
2538;SDS011;1280;49.760;9.664;2022-09-03T00:10:41;4.33;;;1.73;;
2538;SDS011;1280;49.760;9.664;2022-09-03T00:13:14;4.63;;;1.80;;
2538;SDS011;1280;49.760;9.664;2022-09-03T00:15:46;5.17;;;1.90;;
2538;SDS011;1280;49.760;9.664;2022-09-03T00:18:16;3.90;;;1.50;;
2538;SDS011;1280;49.760;9.664;2022-09-03T00:20:50;6.33;;;1.97;;
2538;SDS011;1280;49.760;9.664;2022-09-03T00:23:23;5.40;;;1.90;;
2538;SDS011;1280;49.760;9.664;2022-09-03T00:25:55;6.53;;;1.80;;
2538;SDS011;1280;49.760;9.664;2022-09-03T00:28:27;6.17;;;2.30;;
2538;SDS011;1280;49.760;9.664;2022-09-03T00:31:05;5.90;;;1.70;;
2538;SDS011;1280;49.760;9.664;2022-09-03T00:33:38;5.20;;;2.33;;
2538;SDS011;1280;49.760;9.664;2022-09-03T00:36:12;4.13;;;1.57;;
2538;SDS011;1280;49.760;9.664;2022-09-03T00:38:43;4.40;;;1.83;;
2538;SDS011;1280;49.760;9.664;2022-09-03T00:41:16;4.53;;;1.93;;
2538;SDS011;1280;49.760;9.664;2022-09-03T00:43:55;6.00;;;1.90;;
2538;SDS011;1280;49.760;9.664;2022-09-03T00:46:33;4.63;;;2.00;;
2538;SDS011;1280;49.760;9.664;2022-09-03T00:49:12;6.10;;;2.30;;
2538;SDS011;1280;49.760;9.664;2022-09-03T00:51:57;4.67;;;2.10;;
2538;SDS011;1280;49.760;9.664;2022-09-03T00:54:33;8.77;;;2.47;;
2538;SDS011;1280;49.760;9.664;2022-09-03T00:57:12;5.33;;;1.70;;
2538;SDS011;1280;49.760;9.664;2022-09-03T00:59:53;5.63;;;1.60;;
2538;SDS011;1280;49.760;9.664;2022-09-03T01:02:30;4.40;;;1.83;;
2538;SDS011;1280;49.760;9.664;2022-09-03T01:05:09;4.73;;;1.90;;
2538;SDS011;1280;49.760;9.664;2022-09-03T01:07:45;4.50;;;1.53;;
2538;SDS011;1280;49.760;9.664;2022-09-03T01:10:23;4.37;;;1.80;;
2538;SDS011;1280;49.760;9.664;2022-09-03T01:12:58;5.70;;;2.13;;
2538;SDS011;1280;49.760;9.664;2022-09-03T01:15:34;4.97;;;1.97;;
2538;SDS011;1280;49.760;9.664;2022-09-03T01:18:14;6.03;;;2.03;;
2538;SDS011;1280;49.760;9.664;2022-09-03T01:20:54;4.27;;;1.90;;
2538;SDS011;1280;49.760;9.664;2022-09-03T01:23:39;5.60;;;1.80;;
2538;SDS011;1280;49.760;9.664;2022-09-03T01:29:33;6.00;;;1.90;;
2538;SDS011;1280;49.760;9.664;2022-09-03T01:32:08;4.00;;;1.70;;
2538;SDS011;1280;49.760;9.664;2022-09-03T01:34:43;4.53;;;2.00;;
2538;SDS011;1280;49.760;9.664;2022-09-03T01:37:21;4.60;;;1.80;;
2538;SDS011;1280;49.760;9.664;2022-09-03T01:40:00;4.87;;;2.00;;
2538;SDS011;1280;49.760;9.664;2022-09-03T01:42:41;4.87;;;2.03;;
2538;SDS011;1280;49.760;9.664;2022-09-03T01:45:28;5.57;;;2.20;;
2538;SDS011;1280;49.760;9.664;2022-09-03T01:48:29;4.07;;;1.70;;
2538;SDS011;1280;49.760;9.664;2022-09-03T01:51:06;4.47;;;2.03;;
2538;SDS011;1280;49.760;9.664;2022-09-03T01:53:47;6.67;;;2.10;;
2538;SDS011;1280;49.760;9.664;2022-09-03T01:56:32;5.63;;;2.60;;
2538;SDS011;1280;49.760;9.664;2022-09-03T01:59:12;7.70;;;2.47;;
2538;SDS011;1280;49.760;9.664;2022-09-03T02:01:50;4.70;;;2.00;;
2538;SDS011;1280;49.760;9.664;2022-09-03T02:04:24;5.27;;;2.10;;
2538;SDS011;1280;49.760;9.664;2022-09-03T02:06:55;6.57;;;1.90;;
2538;SDS011;1280;49.760;9.664;2022-09-03T02:09:25;4.73;;;1.90;;
2538;SDS011;1280;49.760;9.664;2022-09-03T02:11:59;4.47;;;2.13;;
2538;SDS011;1280;49.760;9.664;2022-09-03T02:14:32;7.07;;;2.20;;
2538;SDS011;1280;49.760;9.664;2022-09-03T02:17:02;6.20;;;2.20;;
2538;SDS011;1280;49.760;9.664;2022-09-03T02:19:32;5.23;;;2.10;;
2538;SDS011;1280;49.760;9.664;2022-09-03T02:22:02;6.30;;;2.30;;
2538;SDS011;1280;49.760;9.664;2022-09-03T02:24:31;4.07;;;1.73;;
2538;SDS011;1280;49.760;9.664;2022-09-03T02:26:59;4.90;;;1.80;;
2538;SDS011;1280;49.760;9.664;2022-09-03T02:29:27;6.30;;;2.10;;
2538;SDS011;1280;49.760;9.664;2022-09-03T02:31:56;6.33;;;2.03;;
2538;SDS011;1280;49.760;9.664;2022-09-03T02:34:26;4.60;;;2.13;;
2538;SDS011;1280;49.760;9.664;2022-09-03T02:36:54;4.57;;;2.20;;
2538;SDS011;1280;49.760;9.664;2022-09-03T02:39:22;4.47;;;2.20;;
2538;SDS011;1280;49.760;9.664;2022-09-03T02:41:50;7.00;;;2.70;;
2538;SDS011;1280;49.760;9.664;2022-09-03T02:44:23;5.40;;;2.17;;
2538;SDS011;1280;49.760;9.664;2022-09-03T02:46:57;4.63;;;2.00;;
2538;SDS011;1280;49.760;9.664;2022-09-03T02:49:29;5.57;;;2.30;;
2538;SDS011;1280;49.760;9.664;2022-09-03T02:51:58;5.10;;;1.87;;
2538;SDS011;1280;49.760;9.664;2022-09-03T02:54:31;5.00;;;2.13;;
2538;SDS011;1280;49.760;9.664;2022-09-03T02:57:01;4.67;;;2.10;;
2538;SDS011;1280;49.760;9.664;2022-09-03T02:59:30;4.17;;;1.93;;
2538;SDS011;1280;49.760;9.664;2022-09-03T03:01:58;5.27;;;2.40;;
2538;SDS011;1280;49.760;9.664;2022-09-03T03:04:27;6.20;;;2.60;;
2538;SDS011;1280;49.760;9.664;2022-09-03T03:06:57;4.83;;;2.27;;
2538;SDS011;1280;49.760;9.664;2022-09-03T03:09:25;5.13;;;1.97;;
2538;SDS011;1280;49.760;9.664;2022-09-03T03:11:54;4.73;;;2.40;;
2538;SDS011;1280;49.760;9.664;2022-09-03T03:14:22;4.70;;;2.33;;
2538;SDS011;1280;49.760;9.664;2022-09-03T03:16:50;5.47;;;2.40;;
2538;SDS011;1280;49.760;9.664;2022-09-03T03:19:18;5.03;;;1.90;;
2538;SDS011;1280;49.760;9.664;2022-09-03T03:21:48;4.60;;;2.17;;
2538;SDS011;1280;49.760;9.664;2022-09-03T03:24:16;4.63;;;2.20;;
2538;SDS011;1280;49.760;9.664;2022-09-03T03:26:44;5.33;;;2.50;;
2538;SDS011;1280;49.760;9.664;2022-09-03T03:29:13;5.90;;;2.50;;
2538;SDS011;1280;49.760;9.664;2022-09-03T03:31:43;5.80;;;2.67;;
2538;SDS011;1280;49.760;9.664;2022-09-03T03:34:11;7.57;;;2.80;;
2538;SDS011;1280;49.760;9.664;2022-09-03T03:36:39;4.10;;;2.07;;
2538;SDS011;1280;49.760;9.664;2022-09-03T03:39:09;4.90;;;2.40;;
2538;SDS011;1280;49.760;9.664;2022-09-03T03:41:36;6.50;;;3.30;;
2538;SDS011;1280;49.760;9.664;2022-09-03T03:44:05;5.40;;;2.20;;
2538;SDS011;1280;49.760;9.664;2022-09-03T03:46:35;5.57;;;2.63;;
2538;SDS011;1280;49.760;9.664;2022-09-03T03:49:05;4.13;;;2.20;;
2538;SDS011;1280;49.760;9.664;2022-09-03T03:51:34;4.93;;;2.63;;
2538;SDS011;1280;49.760;9.664;2022-09-03T03:54:03;4.20;;;2.07;;
2538;SDS011;1280;49.760;9.664;2022-09-03T03:56:33;5.20;;;2.53;;
2538;SDS011;1280;49.760;9.664;2022-09-03T03:59:01;5.10;;;2.57;;
2538;SDS011;1280;49.760;9.664;2022-09-03T04:01:30;4.53;;;2.40;;
2538;SDS011;1280;49.760;9.664;2022-09-03T04:03:58;4.57;;;2.33;;
2538;SDS011;1280;49.760;9.664;2022-09-03T04:06:26;4.73;;;2.27;;
2538;SDS011;1280;49.760;9.664;2022-09-03T04:08:54;4.67;;;2.37;;
2538;SDS011;1280;49.760;9.664;2022-09-03T04:11:22;6.83;;;2.10;;
2538;SDS011;1280;49.760;9.664;2022-09-03T04:13:53;4.47;;;2.07;;
2538;SDS011;1280;49.760;9.664;2022-09-03T04:16:21;4.70;;;2.00;;
2538;SDS011;1280;49.760;9.664;2022-09-03T04:18:51;4.50;;;2.10;;
2538;SDS011;1280;49.760;9.664;2022-09-03T04:21:20;5.43;;;2.40;;
2538;SDS011;1280;49.760;9.664;2022-09-03T04:23:52;5.77;;;2.50;;
2538;SDS011;1280;49.760;9.664;2022-09-03T04:26:21;5.30;;;2.33;;
2538;SDS011;1280;49.760;9.664;2022-09-03T04:28:50;4.80;;;2.27;;
2538;SDS011;1280;49.760;9.664;2022-09-03T04:31:20;4.90;;;2.03;;
2538;SDS011;1280;49.760;9.664;2022-09-03T04:33:48;5.20;;;2.50;;
2538;SDS011;1280;49.760;9.664;2022-09-03T04:36:16;4.47;;;2.47;;
2538;SDS011;1280;49.760;9.664;2022-09-03T04:38:47;5.33;;;1.93;;
2538;SDS011;1280;49.760;9.664;2022-09-03T04:41:16;4.87;;;2.47;;
2538;SDS011;1280;49.760;9.664;2022-09-03T04:43:45;4.57;;;2.00;;
2538;SDS011;1280;49.760;9.664;2022-09-03T04:46:17;4.20;;;2.17;;
2538;SDS011;1280;49.760;9.664;2022-09-03T04:48:48;5.03;;;2.47;;
2538;SDS011;1280;49.760;9.664;2022-09-03T04:51:18;5.60;;;2.33;;
2538;SDS011;1280;49.760;9.664;2022-09-03T04:53:51;4.60;;;1.87;;
2538;SDS011;1280;49.760;9.664;2022-09-03T04:56:20;4.40;;;2.10;;
2538;SDS011;1280;49.760;9.664;2022-09-03T04:58:53;6.03;;;2.13;;
2538;SDS011;1280;49.760;9.664;2022-09-03T05:01:22;5.03;;;2.33;;
2538;SDS011;1280;49.760;9.664;2022-09-03T05:03:53;4.63;;;2.00;;
2538;SDS011;1280;49.760;9.664;2022-09-03T05:06:23;5.07;;;2.33;;
2538;SDS011;1280;49.760;9.664;2022-09-03T05:08:52;6.70;;;2.10;;
2538;SDS011;1280;49.760;9.664;2022-09-03T05:11:21;10.00;;;2.10;;
2538;SDS011;1280;49.760;9.664;2022-09-03T05:13:50;4.43;;;1.80;;
2538;SDS011;1280;49.760;9.664;2022-09-03T05:16:20;5.00;;;2.33;;
2538;SDS011;1280;49.760;9.664;2022-09-03T05:18:51;4.90;;;2.30;;
2538;SDS011;1280;49.760;9.664;2022-09-03T05:21:21;3.80;;;1.73;;
2538;SDS011;1280;49.760;9.664;2022-09-03T05:23:50;5.90;;;2.30;;
2538;SDS011;1280;49.760;9.664;2022-09-03T05:26:19;6.40;;;2.10;;
2538;SDS011;1280;49.760;9.664;2022-09-03T05:28:51;6.93;;;2.77;;
2538;SDS011;1280;49.760;9.664;2022-09-03T05:31:21;4.43;;;2.10;;
2538;SDS011;1280;49.760;9.664;2022-09-03T05:33:52;6.80;;;2.10;;
2538;SDS011;1280;49.760;9.664;2022-09-03T05:36:24;5.60;;;2.13;;
2538;SDS011;1280;49.760;9.664;2022-09-03T05:38:54;5.60;;;2.40;;
2538;SDS011;1280;49.760;9.664;2022-09-03T05:41:23;5.70;;;2.40;;
2538;SDS011;1280;49.760;9.664;2022-09-03T05:43:53;6.23;;;2.30;;
2538;SDS011;1280;49.760;9.664;2022-09-03T05:46:25;6.13;;;2.20;;
2538;SDS011;1280;49.760;9.664;2022-09-03T05:48:57;7.90;;;2.27;;
2538;SDS011;1280;49.760;9.664;2022-09-03T05:51:27;5.07;;;2.43;;
2538;SDS011;1280;49.760;9.664;2022-09-03T05:53:56;4.50;;;2.17;;
2538;SDS011;1280;49.760;9.664;2022-09-03T05:56:25;3.87;;;1.87;;
2538;SDS011;1280;49.760;9.664;2022-09-03T05:58:55;4.60;;;2.10;;
2538;SDS011;1280;49.760;9.664;2022-09-03T06:01:26;4.60;;;2.47;;
2538;SDS011;1280;49.760;9.664;2022-09-03T06:03:56;4.30;;;2.00;;
2538;SDS011;1280;49.760;9.664;2022-09-03T06:06:27;5.93;;;2.43;;
2538;SDS011;1280;49.760;9.664;2022-09-03T06:08:57;10.07;;;2.20;;
2538;SDS011;1280;49.760;9.664;2022-09-03T06:11:27;5.20;;;2.37;;
2538;SDS011;1280;49.760;9.664;2022-09-03T06:13:57;5.53;;;2.03;;
2538;SDS011;1280;49.760;9.664;2022-09-03T06:16:26;5.10;;;1.90;;
2538;SDS011;1280;49.760;9.664;2022-09-03T06:18:57;7.40;;;2.23;;
2538;SDS011;1280;49.760;9.664;2022-09-03T06:21:27;5.07;;;2.37;;
2538;SDS011;1280;49.760;9.664;2022-09-03T06:23:56;5.43;;;2.00;;
2538;SDS011;1280;49.760;9.664;2022-09-03T06:26:25;6.63;;;1.90;;
2538;SDS011;1280;49.760;9.664;2022-09-03T06:28:55;4.47;;;2.00;;
2538;SDS011;1280;49.760;9.664;2022-09-03T06:31:23;6.10;;;2.30;;
2538;SDS011;1280;49.760;9.664;2022-09-03T06:33:52;4.73;;;1.93;;
2538;SDS011;1280;49.760;9.664;2022-09-03T06:36:27;6.87;;;2.53;;
2538;SDS011;1280;49.760;9.664;2022-09-03T06:38:55;7.00;;;2.80;;
2538;SDS011;1280;49.760;9.664;2022-09-03T06:41:24;6.77;;;2.50;;
2538;SDS011;1280;49.760;9.664;2022-09-03T06:43:57;5.90;;;2.17;;
2538;SDS011;1280;49.760;9.664;2022-09-03T06:46:27;8.40;;;2.47;;
2538;SDS011;1280;49.760;9.664;2022-09-03T06:48:57;6.23;;;2.10;;
2538;SDS011;1280;49.760;9.664;2022-09-03T06:51:26;6.03;;;2.20;;
2538;SDS011;1280;49.760;9.664;2022-09-03T06:53:58;5.33;;;2.40;;
2538;SDS011;1280;49.760;9.664;2022-09-03T06:56:28;4.30;;;2.10;;
2538;SDS011;1280;49.760;9.664;2022-09-03T06:59:05;5.93;;;2.43;;
2538;SDS011;1280;49.760;9.664;2022-09-03T07:01:34;5.20;;;1.90;;
2538;SDS011;1280;49.760;9.664;2022-09-03T07:04:09;7.67;;;2.70;;
2538;SDS011;1280;49.760;9.664;2022-09-03T07:06:40;4.30;;;2.10;;
2538;SDS011;1280;49.760;9.664;2022-09-03T07:09:10;8.73;;;4.33;;
2538;SDS011;1280;49.760;9.664;2022-09-03T07:11:40;4.50;;;2.53;;
2538;SDS011;1280;49.760;9.664;2022-09-03T07:14:14;5.07;;;2.37;;
2538;SDS011;1280;49.760;9.664;2022-09-03T07:16:43;4.70;;;2.30;;
2538;SDS011;1280;49.760;9.664;2022-09-03T07:19:12;9.27;;;2.40;;
2538;SDS011;1280;49.760;9.664;2022-09-03T07:21:42;5.00;;;1.67;;
2538;SDS011;1280;49.760;9.664;2022-09-03T07:24:15;5.70;;;2.13;;
2538;SDS011;1280;49.760;9.664;2022-09-03T07:26:44;5.10;;;2.57;;
2538;SDS011;1280;49.760;9.664;2022-09-03T07:29:14;7.97;;;2.10;;
2538;SDS011;1280;49.760;9.664;2022-09-03T07:31:46;10.63;;;2.83;;
2538;SDS011;1280;49.760;9.664;2022-09-03T07:34:17;5.10;;;2.40;;
2538;SDS011;1280;49.760;9.664;2022-09-03T07:36:48;6.47;;;2.30;;
2538;SDS011;1280;49.760;9.664;2022-09-03T07:39:17;11.10;;;2.20;;
2538;SDS011;1280;49.760;9.664;2022-09-03T07:41:46;7.83;;;2.60;;
2538;SDS011;1280;49.760;9.664;2022-09-03T07:44:16;9.50;;;2.43;;
2538;SDS011;1280;49.760;9.664;2022-09-03T07:46:45;4.67;;;2.20;;
2538;SDS011;1280;49.760;9.664;2022-09-03T07:49:16;4.10;;;2.00;;
2538;SDS011;1280;49.760;9.664;2022-09-03T07:51:45;7.83;;;2.23;;
2538;SDS011;1280;49.760;9.664;2022-09-03T07:54:17;5.50;;;1.90;;
2538;SDS011;1280;49.760;9.664;2022-09-03T07:56:46;11.03;;;5.43;;
2538;SDS011;1280;49.760;9.664;2022-09-03T07:59:15;5.57;;;2.07;;
2538;SDS011;1280;49.760;9.664;2022-09-03T08:01:43;4.70;;;2.50;;
2538;SDS011;1280;49.760;9.664;2022-09-03T08:04:11;7.13;;;2.50;;
2538;SDS011;1280;49.760;9.664;2022-09-03T08:06:39;4.60;;;2.13;;
2538;SDS011;1280;49.760;9.664;2022-09-03T08:09:08;4.60;;;2.20;;
2538;SDS011;1280;49.760;9.664;2022-09-03T08:11:41;4.70;;;2.00;;
2538;SDS011;1280;49.760;9.664;2022-09-03T08:14:10;20.00;;;3.30;;
2538;SDS011;1280;49.760;9.664;2022-09-03T08:16:41;5.13;;;1.97;;
2538;SDS011;1280;49.760;9.664;2022-09-03T08:19:11;6.37;;;2.60;;
2538;SDS011;1280;49.760;9.664;2022-09-03T08:21:40;6.53;;;2.50;;
2538;SDS011;1280;49.760;9.664;2022-09-03T08:24:08;9.30;;;2.70;;
2538;SDS011;1280;49.760;9.664;2022-09-03T08:26:38;6.07;;;2.23;;
2538;SDS011;1280;49.760;9.664;2022-09-03T08:29:14;5.73;;;2.23;;
2538;SDS011;1280;49.760;9.664;2022-09-03T08:31:42;4.87;;;2.30;;
2538;SDS011;1280;49.760;9.664;2022-09-03T08:34:10;5.40;;;2.53;;
2538;SDS011;1280;49.760;9.664;2022-09-03T08:36:40;5.30;;;2.47;;
2538;SDS011;1280;49.760;9.664;2022-09-03T08:39:08;5.07;;;2.40;;
2538;SDS011;1280;49.760;9.664;2022-09-03T08:44:47;5.63;;;2.73;;
2538;SDS011;1280;49.760;9.664;2022-09-03T08:47:20;5.57;;;2.40;;
2538;SDS011;1280;49.760;9.664;2022-09-03T08:49:53;7.30;;;2.60;;
2538;SDS011;1280;49.760;9.664;2022-09-03T08:52:25;6.20;;;2.17;;
2538;SDS011;1280;49.760;9.664;2022-09-03T08:55:00;5.97;;;2.63;;
2538;SDS011;1280;49.760;9.664;2022-09-03T08:57:35;5.00;;;2.40;;
2538;SDS011;1280;49.760;9.664;2022-09-03T09:00:11;7.67;;;2.60;;
2538;SDS011;1280;49.760;9.664;2022-09-03T09:02:43;7.40;;;2.60;;
2538;SDS011;1280;49.760;9.664;2022-09-03T09:05:21;7.50;;;2.60;;
2538;SDS011;1280;49.760;9.664;2022-09-03T09:07:58;8.50;;;2.10;;
2538;SDS011;1280;49.760;9.664;2022-09-03T09:10:36;6.87;;;2.13;;
2538;SDS011;1280;49.760;9.664;2022-09-03T09:13:13;8.00;;;2.27;;
2538;SDS011;1280;49.760;9.664;2022-09-03T09:15:51;7.30;;;2.50;;
2538;SDS011;1280;49.760;9.664;2022-09-03T09:18:26;9.33;;;2.90;;
2538;SDS011;1280;49.760;9.664;2022-09-03T09:21:06;6.57;;;3.10;;
2538;SDS011;1280;49.760;9.664;2022-09-03T09:23:46;7.30;;;2.63;;
2538;SDS011;1280;49.760;9.664;2022-09-03T09:26:16;5.60;;;2.00;;
2538;SDS011;1280;49.760;9.664;2022-09-03T09:28:49;5.30;;;2.10;;
2538;SDS011;1280;49.760;9.664;2022-09-03T09:31:23;5.90;;;2.43;;
2538;SDS011;1280;49.760;9.664;2022-09-03T09:33:52;6.30;;;2.73;;
2538;SDS011;1280;49.760;9.664;2022-09-03T09:36:21;5.57;;;2.30;;
2538;SDS011;1280;49.760;9.664;2022-09-03T09:38:49;6.70;;;2.90;;
2538;SDS011;1280;49.760;9.664;2022-09-03T09:41:19;5.60;;;2.23;;
2538;SDS011;1280;49.760;9.664;2022-09-03T09:43:58;8.33;;;2.70;;
2538;SDS011;1280;49.760;9.664;2022-09-03T09:46:30;8.10;;;2.60;;
2538;SDS011;1280;49.760;9.664;2022-09-03T09:49:06;6.17;;;2.30;;
2538;SDS011;1280;49.760;9.664;2022-09-03T09:51:59;5.90;;;2.63;;
2538;SDS011;1280;49.760;9.664;2022-09-03T09:54:28;4.57;;;1.90;;
2538;SDS011;1280;49.760;9.664;2022-09-03T09:56:59;7.70;;;2.50;;
2538;SDS011;1280;49.760;9.664;2022-09-03T09:59:29;7.30;;;2.70;;
2538;SDS011;1280;49.760;9.664;2022-09-03T10:02:07;6.97;;;2.53;;
2538;SDS011;1280;49.760;9.664;2022-09-03T10:04:47;5.27;;;2.63;;
2538;SDS011;1280;49.760;9.664;2022-09-03T10:07:20;6.00;;;2.33;;
2538;SDS011;1280;49.760;9.664;2022-09-03T10:09:58;4.90;;;2.57;;
2538;SDS011;1280;49.760;9.664;2022-09-03T10:12:32;4.60;;;2.20;;
2538;SDS011;1280;49.760;9.664;2022-09-03T10:15:10;5.90;;;2.40;;
2538;SDS011;1280;49.760;9.664;2022-09-03T10:17:48;8.20;;;2.70;;
2538;SDS011;1280;49.760;9.664;2022-09-03T10:20:23;5.60;;;2.03;;
2538;SDS011;1280;49.760;9.664;2022-09-03T10:23:05;6.83;;;2.43;;
2538;SDS011;1280;49.760;9.664;2022-09-03T10:25:39;5.70;;;1.97;;
2538;SDS011;1280;49.760;9.664;2022-09-03T10:28:15;5.43;;;2.27;;
2538;SDS011;1280;49.760;9.664;2022-09-03T10:30:51;7.30;;;1.87;;
2538;SDS011;1280;49.760;9.664;2022-09-03T10:33:34;4.30;;;1.80;;
2538;SDS011;1280;49.760;9.664;2022-09-03T10:36:09;6.23;;;2.20;;
2538;SDS011;1280;49.760;9.664;2022-09-03T10:38:42;8.60;;;2.57;;
2538;SDS011;1280;49.760;9.664;2022-09-03T10:41:17;5.50;;;2.30;;
2538;SDS011;1280;49.760;9.664;2022-09-03T10:44:03;4.80;;;2.20;;
2538;SDS011;1280;49.760;9.664;2022-09-03T10:46:47;5.27;;;2.33;;
2538;SDS011;1280;49.760;9.664;2022-09-03T10:49:29;8.10;;;2.27;;
2538;SDS011;1280;49.760;9.664;2022-09-03T10:52:09;8.20;;;2.60;;
2538;SDS011;1280;49.760;9.664;2022-09-03T10:54:47;6.23;;;2.50;;
2538;SDS011;1280;49.760;9.664;2022-09-03T10:57:28;4.90;;;2.50;;
2538;SDS011;1280;49.760;9.664;2022-09-03T11:00:03;4.70;;;2.30;;
2538;SDS011;1280;49.760;9.664;2022-09-03T11:05:35;5.30;;;2.17;;
2538;SDS011;1280;49.760;9.664;2022-09-03T11:08:06;5.93;;;2.60;;
2538;SDS011;1280;49.760;9.664;2022-09-03T11:10:39;4.70;;;2.50;;
2538;SDS011;1280;49.760;9.664;2022-09-03T11:13:11;9.30;;;2.70;;
2538;SDS011;1280;49.760;9.664;2022-09-03T11:15:47;5.20;;;2.17;;
2538;SDS011;1280;49.760;9.664;2022-09-03T11:18:19;5.90;;;2.63;;
2538;SDS011;1280;49.760;9.664;2022-09-03T11:20:53;8.23;;;3.00;;
2538;SDS011;1280;49.760;9.664;2022-09-03T11:23:35;7.37;;;4.00;;
2538;SDS011;1280;49.760;9.664;2022-09-03T11:26:07;8.20;;;3.93;;
2538;SDS011;1280;49.760;9.664;2022-09-03T11:28:40;9.93;;;4.10;;
2538;SDS011;1280;49.760;9.664;2022-09-03T11:31:21;8.67;;;4.10;;
2538;SDS011;1280;49.760;9.664;2022-09-03T11:33:57;9.20;;;4.50;;
2538;SDS011;1280;49.760;9.664;2022-09-03T11:36:35;9.77;;;4.53;;
2538;SDS011;1280;49.760;9.664;2022-09-03T11:39:17;10.20;;;4.57;;
2538;SDS011;1280;49.760;9.664;2022-09-03T11:41:56;9.33;;;4.77;;
2538;SDS011;1280;49.760;9.664;2022-09-03T11:44:34;13.53;;;5.53;;
2538;SDS011;1280;49.760;9.664;2022-09-03T11:47:20;14.20;;;5.70;;
2538;SDS011;1280;49.760;9.664;2022-09-03T11:49:50;16.00;;;7.90;;
2538;SDS011;1280;49.760;9.664;2022-09-03T11:52:26;15.00;;;7.50;;
2538;SDS011;1280;49.760;9.664;2022-09-03T11:54:57;9.87;;;5.90;;
2538;SDS011;1280;49.760;9.664;2022-09-03T11:57:26;13.80;;;6.77;;
2538;SDS011;1280;49.760;9.664;2022-09-03T12:00:06;7.67;;;5.00;;
2538;SDS011;1280;49.760;9.664;2022-09-03T12:02:41;6.80;;;4.03;;
2538;SDS011;1280;49.760;9.664;2022-09-03T12:05:13;9.33;;;4.80;;
2538;SDS011;1280;49.760;9.664;2022-09-03T12:10:52;8.03;;;3.90;;
2538;SDS011;1280;49.760;9.664;2022-09-03T12:13:32;8.50;;;4.37;;
2538;SDS011;1280;49.760;9.664;2022-09-03T12:16:16;8.50;;;5.43;;
2538;SDS011;1280;49.760;9.664;2022-09-03T12:19:06;7.93;;;4.30;;
2538;SDS011;1280;49.760;9.664;2022-09-03T12:21:42;8.57;;;5.70;;
2538;SDS011;1280;49.760;9.664;2022-09-03T12:24:17;8.83;;;4.90;;
2538;SDS011;1280;49.760;9.664;2022-09-03T12:26:48;8.30;;;4.80;;
2538;SDS011;1280;49.760;9.664;2022-09-03T12:29:21;10.60;;;4.47;;
2538;SDS011;1280;49.760;9.664;2022-09-03T12:31:53;6.90;;;4.30;;
2538;SDS011;1280;49.760;9.664;2022-09-03T12:34:22;12.20;;;5.03;;
2538;SDS011;1280;49.760;9.664;2022-09-03T12:36:53;7.50;;;4.43;;
2538;SDS011;1280;49.760;9.664;2022-09-03T12:39:23;10.20;;;4.47;;
2538;SDS011;1280;49.760;9.664;2022-09-03T12:42:14;6.30;;;4.13;;
2538;SDS011;1280;49.760;9.664;2022-09-03T12:44:47;8.43;;;3.90;;
2538;SDS011;1280;49.760;9.664;2022-09-03T12:47:15;7.87;;;5.03;;
2538;SDS011;1280;49.760;9.664;2022-09-03T12:50:04;8.13;;;3.57;;
2538;SDS011;1280;49.760;9.664;2022-09-03T12:52:34;7.63;;;3.93;;
2538;SDS011;1280;49.760;9.664;2022-09-03T12:55:10;33.63;;;9.10;;
2538;SDS011;1280;49.760;9.664;2022-09-03T12:57:54;22.40;;;5.10;;
2538;SDS011;1280;49.760;9.664;2022-09-03T13:00:30;11.90;;;5.33;;
2538;SDS011;1280;49.760;9.664;2022-09-03T13:03:02;11.63;;;4.50;;
2538;SDS011;1280;49.760;9.664;2022-09-03T13:05:34;8.60;;;4.23;;
2538;SDS011;1280;49.760;9.664;2022-09-03T13:08:12;8.53;;;4.10;;
2538;SDS011;1280;49.760;9.664;2022-09-03T13:10:48;8.13;;;3.83;;
2538;SDS011;1280;49.760;9.664;2022-09-03T13:13:20;7.50;;;3.40;;
2538;SDS011;1280;49.760;9.664;2022-09-03T13:16:04;6.37;;;3.60;;
2538;SDS011;1280;49.760;9.664;2022-09-03T13:18:53;6.93;;;4.00;;
2538;SDS011;1280;49.760;9.664;2022-09-03T13:21:30;6.67;;;3.40;;
2538;SDS011;1280;49.760;9.664;2022-09-03T13:24:12;8.90;;;4.13;;
2538;SDS011;1280;49.760;9.664;2022-09-03T13:26:58;9.57;;;3.90;;
2538;SDS011;1280;49.760;9.664;2022-09-03T13:29:36;5.20;;;3.30;;
2538;SDS011;1280;49.760;9.664;2022-09-03T13:32:11;5.37;;;3.20;;
2538;SDS011;1280;49.760;9.664;2022-09-03T13:34:51;11.70;;;3.50;;
2538;SDS011;1280;49.760;9.664;2022-09-03T13:37:24;6.80;;;3.13;;
2538;SDS011;1280;49.760;9.664;2022-09-03T13:39:59;6.13;;;3.00;;
2538;SDS011;1280;49.760;9.664;2022-09-03T13:42:35;6.73;;;3.30;;
2538;SDS011;1280;49.760;9.664;2022-09-03T13:45:10;9.00;;;2.83;;
2538;SDS011;1280;49.760;9.664;2022-09-03T13:47:47;6.30;;;3.40;;
2538;SDS011;1280;49.760;9.664;2022-09-03T13:50:38;5.83;;;3.03;;
2538;SDS011;1280;49.760;9.664;2022-09-03T13:53:12;8.10;;;2.90;;
2538;SDS011;1280;49.760;9.664;2022-09-03T13:55:48;8.63;;;3.83;;
2538;SDS011;1280;49.760;9.664;2022-09-03T13:58:23;10.17;;;3.40;;
2538;SDS011;1280;49.760;9.664;2022-09-03T14:01:03;6.10;;;2.70;;
2538;SDS011;1280;49.760;9.664;2022-09-03T14:03:37;7.70;;;2.90;;
2538;SDS011;1280;49.760;9.664;2022-09-03T14:06:17;4.77;;;2.70;;
2538;SDS011;1280;49.760;9.664;2022-09-03T14:08:58;4.90;;;2.60;;
2538;SDS011;1280;49.760;9.664;2022-09-03T14:11:34;5.10;;;2.40;;
2538;SDS011;1280;49.760;9.664;2022-09-03T14:14:15;8.00;;;2.67;;
2538;SDS011;1280;49.760;9.664;2022-09-03T14:16:56;4.50;;;2.40;;
2538;SDS011;1280;49.760;9.664;2022-09-03T14:19:32;6.60;;;2.50;;
2538;SDS011;1280;49.760;9.664;2022-09-03T14:22:05;7.90;;;3.27;;
2538;SDS011;1280;49.760;9.664;2022-09-03T14:24:43;6.10;;;2.50;;
2538;SDS011;1280;49.760;9.664;2022-09-03T14:27:22;5.40;;;2.83;;
2538;SDS011;1280;49.760;9.664;2022-09-03T14:29:53;6.73;;;2.60;;
2538;SDS011;1280;49.760;9.664;2022-09-03T14:32:27;8.93;;;2.90;;
2538;SDS011;1280;49.760;9.664;2022-09-03T14:35:04;5.30;;;2.50;;
2538;SDS011;1280;49.760;9.664;2022-09-03T14:38:04;5.70;;;2.33;;
2538;SDS011;1280;49.760;9.664;2022-09-03T14:40:56;5.87;;;2.13;;
2538;SDS011;1280;49.760;9.664;2022-09-03T14:46:45;5.47;;;2.67;;
2538;SDS011;1280;49.760;9.664;2022-09-03T14:49:37;4.77;;;2.30;;
2538;SDS011;1280;49.760;9.664;2022-09-03T14:52:17;9.33;;;3.50;;
2538;SDS011;1280;49.760;9.664;2022-09-03T14:55:12;12.20;;;3.10;;
2538;SDS011;1280;49.760;9.664;2022-09-03T14:57:54;9.10;;;3.50;;
2538;SDS011;1280;49.760;9.664;2022-09-03T15:00:46;5.90;;;3.00;;
2538;SDS011;1280;49.760;9.664;2022-09-03T15:03:35;11.03;;;3.00;;
2538;SDS011;1280;49.760;9.664;2022-09-03T15:06:24;7.30;;;2.90;;
2538;SDS011;1280;49.760;9.664;2022-09-03T15:09:10;5.23;;;2.97;;
2538;SDS011;1280;49.760;9.664;2022-09-03T15:11:47;4.83;;;2.57;;
2538;SDS011;1280;49.760;9.664;2022-09-03T15:14:19;8.03;;;3.67;;
2538;SDS011;1280;49.760;9.664;2022-09-03T15:16:54;5.40;;;2.90;;
2538;SDS011;1280;49.760;9.664;2022-09-03T15:19:38;7.30;;;3.40;;
2538;SDS011;1280;49.760;9.664;2022-09-03T15:22:20;7.70;;;3.13;;
2538;SDS011;1280;49.760;9.664;2022-09-03T15:25:02;7.43;;;2.60;;
2538;SDS011;1280;49.760;9.664;2022-09-03T15:27:44;4.83;;;2.47;;
2538;SDS011;1280;49.760;9.664;2022-09-03T15:30:32;4.30;;;1.87;;
2538;SDS011;1280;49.760;9.664;2022-09-03T15:33:06;4.47;;;1.87;;
2538;SDS011;1280;49.760;9.664;2022-09-03T15:35:52;6.70;;;1.97;;
2538;SDS011;1280;49.760;9.664;2022-09-03T15:38:34;4.40;;;1.90;;
2538;SDS011;1280;49.760;9.664;2022-09-03T15:41:10;4.70;;;1.90;;
2538;SDS011;1280;49.760;9.664;2022-09-03T15:43:48;5.17;;;2.40;;
2538;SDS011;1280;49.760;9.664;2022-09-03T15:46:33;5.40;;;2.77;;
2538;SDS011;1280;49.760;9.664;2022-09-03T15:49:07;4.97;;;2.20;;
2538;SDS011;1280;49.760;9.664;2022-09-03T15:51:49;4.10;;;2.17;;
2538;SDS011;1280;49.760;9.664;2022-09-03T15:54:34;4.17;;;2.23;;
2538;SDS011;1280;49.760;9.664;2022-09-03T15:57:10;4.10;;;1.70;;
2538;SDS011;1280;49.760;9.664;2022-09-03T15:59:46;4.80;;;2.37;;
2538;SDS011;1280;49.760;9.664;2022-09-03T16:02:19;5.57;;;2.27;;
2538;SDS011;1280;49.760;9.664;2022-09-03T16:04:55;5.00;;;2.50;;
2538;SDS011;1280;49.760;9.664;2022-09-03T16:07:40;4.90;;;2.50;;
2538;SDS011;1280;49.760;9.664;2022-09-03T16:10:21;4.60;;;2.07;;
2538;SDS011;1280;49.760;9.664;2022-09-03T16:13:04;4.70;;;2.10;;